This is the latest recevied weather packets stored in our database for station/object KF7SOJ. If no packets are shown the sender has not sent any weather packets the latest 10 day(s).
| Time | Temp. | Humidity | Pressure | Rain* | Wind** | Luminosity | Snow |
|---|---|---|---|---|---|---|---|
| 1777692241 | 14.44° C | 33% | 932.6 hPa | 0 mm | - | 0 W/m² | - |
| 1777691939 | 15° C | 30% | 932.6 hPa | 0 mm | - | 0 W/m² | - |
| 1777691637 | 15.56° C | 29% | 932.6 hPa | 0 mm | - | 0 W/m² | - |
| 1777691335 | 15.56° C | 29% | 932.4 hPa | 0 mm | - | 0 W/m² | - |
| 1777691033 | 15.56° C | 29% | 932.4 hPa | 0 mm | - | 0 W/m² | - |
| 1777690730 | 16.11° C | 27% | 932.3 hPa | 0 mm | - | 0 W/m² | - |
| 1777690427 | 16.11° C | 27% | 932.5 hPa | 0 mm | - | 0 W/m² | - |
| 1777690125 | 16.67° C | 26% | 932.3 hPa | 0 mm | - | 0 W/m² | - |
| 1777689823 | 17.22° C | 25% | 932.2 hPa | 0 mm | - | 0 W/m² | - |
| 1777689521 | 17.78° C | 25% | 932.2 hPa | 0 mm | - | 0 W/m² | - |
| 1777689218 | 17.22° C | 27% | 932.2 hPa | 0 mm | - | 1 W/m² | - |
| 1777688916 | 17.22° C | 28% | 932.4 hPa | 0 mm | - | 2 W/m² | - |
| 1777688612 | 17.78° C | 28% | 932.4 hPa | 0 mm | - | 4 W/m² | - |
| 1777688309 | 17.78° C | 27% | 932.5 hPa | 0 mm | - | 6 W/m² | - |
| 1777688006 | 18.33° C | 27% | 932.5 hPa | 0 mm | - | 9 W/m² | - |
| 1777687704 | 18.33° C | 27% | 932.5 hPa | 0 mm | - | 13 W/m² | - |
| 1777687401 | 18.33° C | 27% | 932.4 hPa | 0 mm | - | 17 W/m² | - |
| 1777687098 | 18.89° C | 26% | 932.5 hPa | 0 mm | - | 21 W/m² | - |
| 1777686795 | 18.89° C | 27% | 932.5 hPa | 0 mm | - | 24 W/m² | - |
| 1777686492 | 18.89° C | 26% | 932.4 hPa | 0 mm | - | 27 W/m² | - |
| 1777686189 | 19.44° C | 26% | 932.3 hPa | 0 mm | - | 33 W/m² | - |
| 1777685885 | 20° C | 27% | 932.4 hPa | 0 mm | - | 39 W/m² | - |
| 1777685581 | 20° C | 26% | 932.4 hPa | 0 mm | - | 50 W/m² | - |
| 1777685277 | 20.56° C | 25% | 932.5 hPa | 0 mm | - | 59 W/m² | - |
| 1777684975 | 20.56° C | 25% | 932.5 hPa | 0 mm | - | 70 W/m² | - |
* Rain latest hour (hover to see other rain measurements)
** Current wind speed in m/s (hover to see current wind gust speed)